Time;durP1;ratioP1;P1;durP2;ratioP2;P2;SDS_P1;SDS_P2;PMS_P1;PMS_P2;Temp;Humidity;BMP_temperature;BMP_pressure;BME280_temperature;BME280_humidity;BME280_pressure;Samples;Min_cycle;Max_cycle;Signal;HPM_P1;HPM_P2
2021/06/12 00:00:21;;;;;;;16.93;7.73;;;18.80;1.00;;;;;;5035931;28;20932;-75
2021/06/12 00:02:47;;;;;;;12.03;7.40;;;18.70;1.00;;;;;;5052989;28;20162;-76
2021/06/12 00:05:14;;;;;;;10.60;8.00;;;18.70;1.00;;;;;;5045256;28;20925;-76
2021/06/12 00:07:40;;;;;;;10.60;7.77;;;;;;;;;;5033264;28;20485;-76
2021/06/12 00:10:10;;;;;;;11.73;7.83;;;18.60;1.00;;;;;;5033462;28;20695;-74
2021/06/12 00:12:37;;;;;;;10.60;8.00;;;;;;;;;;5032922;28;20440;-74
2021/06/12 00:15:08;;;;;;;24.33;9.63;;;18.60;1.00;;;;;;5035674;28;20412;-74
2021/06/12 00:17:34;;;;;;;9.70;8.00;;;;;;;;;;5038807;28;20965;-74
2021/06/12 00:20:00;;;;;;;17.33;7.70;;;18.50;1.00;;;;;;5048246;28;20422;-74
2021/06/12 00:22:26;;;;;;;16.27;8.43;;;;;;;;;;5032656;28;20409;-74
2021/06/12 00:24:51;;;;;;;11.60;8.03;;;18.40;1.00;;;;;;5033221;28;20401;-74
2021/06/12 00:27:17;;;;;;;16.80;8.50;;;;;;;;;;5031890;28;20932;-74
2021/06/12 00:29:43;;;;;;;13.07;8.20;;;;;;;;;;5032635;28;20682;-74
2021/06/12 00:32:10;;;;;;;12.77;8.83;;;;;;;;;;5032730;28;20395;-74
2021/06/12 00:34:36;;;;;;;17.43;9.23;;;18.20;1.00;;;;;;5036340;28;20483;-74
2021/06/12 00:37:01;;;;;;;15.23;9.97;;;;;;;;;;5036367;28;20428;-74
2021/06/12 00:39:30;;;;;;;12.00;8.27;;;18.10;1.00;;;;;;5036416;28;20189;-74
2021/06/12 00:41:56;;;;;;;13.87;9.10;;;;;;;;;;5039685;28;20502;-74
2021/06/12 00:44:22;;;;;;;12.77;9.80;;;;;;;;;;5036344;28;20706;-74
2021/06/12 00:46:48;;;;;;;15.20;9.50;;;18.10;1.00;;;;;;5035768;28;20446;-74
2021/06/12 00:49:14;;;;;;;16.20;10.40;;;18.10;1.00;;;;;;5036209;28;20371;-74
2021/06/12 00:51:40;;;;;;;17.70;9.47;;;18.00;1.00;;;;;;5036180;28;20187;-74
2021/06/12 00:54:06;;;;;;;15.73;9.97;;;;;;;;;;5036456;28;20452;-76
2021/06/12 00:56:32;;;;;;;14.60;9.90;;;18.00;1.00;;;;;;5047798;28;20552;-76
2021/06/12 00:58:57;;;;;;;17.97;9.43;;;18.00;1.00;;;;;;5056364;28;20385;-76
2021/06/12 01:01:23;;;;;;;15.23;9.70;;;18.00;1.00;;;;;;5056223;28;20166;-76
2021/06/12 01:04:07;;;;;;;24.07;10.10;;;18.00;1.00;;;;;;5055826;28;20502;-76
2021/06/12 01:06:42;;;;;;;16.47;9.97;;;18.00;1.00;;;;;;5055228;28;20179;-76
2021/06/12 01:09:08;;;;;;;25.97;10.43;;;18.00;1.00;;;;;;5056222;28;20369;-74
2021/06/12 01:11:44;;;;;;;20.00;9.93;;;18.00;1.00;;;;;;5039377;28;20500;-74
2021/06/12 01:14:16;;;;;;;21.77;10.43;;;18.00;1.00;;;;;;5035422;28;20770;-74
2021/06/12 01:17:32;;;;;;;15.90;9.63;;;17.90;1.00;;;;;;5036177;28;20369;-74
2021/06/12 01:20:06;;;;;;;15.57;10.73;;;17.90;1.00;;;;;;5035452;28;20388;-74
2021/06/12 01:22:46;;;;;;;20.90;11.10;;;17.90;1.00;;;;;;5035566;28;20395;-74
2021/06/12 01:25:39;;;;;;;21.63;11.33;;;17.90;1.00;;;;;;5042915;28;20526;-76
2021/06/12 01:28:42;;;;;;;16.37;10.60;;;17.90;1.00;;;;;;5055568;28;20446;-75
2021/06/12 01:31:14;;;;;;;20.03;10.83;;;17.90;1.00;;;;;;5055421;28;20460;-75
2021/06/12 01:33:56;;;;;;;16.90;10.20;;;17.90;1.00;;;;;;5037159;28;20430;-75
2021/06/12 01:36:24;;;;;;;19.70;10.50;;;17.90;1.00;;;;;;5035176;28;20430;-76
2021/06/12 01:38:52;;;;;;;23.57;10.47;;;18.00;1.00;;;;;;5035809;28;20397;-75
2021/06/12 01:41:21;;;;;;;15.17;9.80;;;17.90;1.00;;;;;;5035127;28;20415;-74
2021/06/12 01:43:49;;;;;;;15.63;10.17;;;18.00;1.00;;;;;;5034813;28;20400;-74
2021/06/12 01:46:15;;;;;;;15.00;10.20;;;17.90;1.00;;;;;;5034613;28;20404;-74
2021/06/12 01:48:43;;;;;;;21.00;11.30;;;17.90;1.00;;;;;;5043206;28;20526;-74
2021/06/12 01:51:09;;;;;;;17.03;11.20;;;;;;;;;;5055117;28;20403;-74
2021/06/12 01:53:37;;;;;;;23.43;11.00;;;17.90;1.00;;;;;;5045845;28;20535;-74
2021/06/12 01:56:08;;;;;;;18.03;10.70;;;17.80;1.00;;;;;;5035242;28;21009;-74
2021/06/12 01:58:37;;;;;;;22.30;10.83;;;17.80;1.00;;;;;;5035024;28;20393;-74
2021/06/12 02:01:05;;;;;;;18.37;10.87;;;17.80;1.00;;;;;;5034828;28;20386;-74
2021/06/12 02:03:31;;;;;;;23.77;10.87;;;17.70;1.00;;;;;;5034737;28;20419;-74
2021/06/12 02:05:59;;;;;;;14.10;10.10;;;17.70;1.00;;;;;;5034885;28;20721;-74
2021/06/12 02:08:25;;;;;;;18.83;10.17;;;17.60;1.00;;;;;;5034775;28;20397;-74
2021/06/12 02:11:07;;;;;;;20.03;11.00;;;17.60;1.00;;;;;;5034824;28;20741;-76
2021/06/12 02:13:35;;;;;;;16.67;10.30;;;17.60;1.00;;;;;;5034933;28;20433;-76
2021/06/12 02:16:13;;;;;;;28.00;11.80;;;17.50;1.00;;;;;;5034635;28;20514;-75
2021/06/12 02:18:46;;;;;;;12.87;9.73;;;17.50;1.00;;;;;;5048971;28;20494;-76
2021/06/12 02:21:44;;;;;;;16.20;9.80;;;17.40;1.00;;;;;;5054746;28;20403;-75
2021/06/12 02:24:19;;;;;;;14.90;10.57;;;17.40;1.00;;;;;;5054669;28;20390;-75
2021/06/12 02:26:47;;;;;;;17.03;11.03;;;17.30;1.00;;;;;;5054358;28;20394;-75
2021/06/12 02:29:15;;;;;;;14.53;10.40;;;17.30;1.00;;;;;;5036973;28;20385;-76
2021/06/12 02:32:13;;;;;;;14.83;10.57;;;17.30;1.00;;;;;;5034354;28;20474;-75
2021/06/12 02:34:48;;;;;;;15.80;10.97;;;;;;;;;;5054311;28;20853;-76
2021/06/12 02:37:15;;;;;;;14.80;10.37;;;;;;;;;;5054228;28;20423;-75
2021/06/12 02:39:48;;;;;;;16.70;11.33;;;17.20;1.00;;;;;;5054505;28;20445;-74
2021/06/12 02:42:14;;;;;;;12.93;10.10;;;17.20;1.00;;;;;;5052887;28;20879;-74
2021/06/12 02:44:42;;;;;;;16.90;11.63;;;17.20;1.00;;;;;;5053973;28;20395;-74
2021/06/12 02:47:27;;;;;;;16.30;10.93;;;17.20;1.00;;;;;;5054017;28;20179;-74
2021/06/12 02:49:57;;;;;;;18.50;11.50;;;17.10;1.00;;;;;;5053615;28;20388;-74
2021/06/12 02:52:33;;;;;;;15.17;11.30;;;17.00;1.00;;;;;;5053940;28;20942;-74
2021/06/12 02:55:18;;;;;;;16.37;11.30;;;17.00;1.00;;;;;;5038833;28;20806;-75
2021/06/12 02:57:48;;;;;;;19.63;12.10;;;17.00;1.00;;;;;;5033919;28;20424;-75
2021/06/12 03:00:20;;;;;;;20.17;11.90;;;16.90;1.00;;;;;;5033754;28;20407;-75
2021/06/12 03:03:30;;;;;;;18.40;11.00;;;16.90;1.00;;;;;;5047481;28;20410;-75
2021/06/12 03:06:03;;;;;;;24.87;12.63;;;16.80;1.00;;;;;;5053477;28;20368;-76
2021/06/12 03:08:36;;;;;;;21.93;11.33;;;16.80;1.00;;;;;;5053943;28;20361;-75
2021/06/12 03:11:05;;;;;;;17.13;11.67;;;16.80;1.00;;;;;;5054070;28;20369;-74
2021/06/12 03:13:32;;;;;;;17.40;11.63;;;16.80;1.00;;;;;;5044082;28;20737;-74
2021/06/12 03:16:00;;;;;;;16.73;11.90;;;16.70;1.00;;;;;;5033310;28;20396;-74
2021/06/12 03:18:27;;;;;;;18.10;11.60;;;16.70;1.00;;;;;;5033822;28;20373;-74
2021/06/12 03:21:01;;;;;;;15.83;11.43;;;16.70;1.00;;;;;;5033777;28;20448;-74
2021/06/12 03:23:28;;;;;;;22.90;12.33;;;16.60;1.00;;;;;;5033345;28;20749;-74
2021/06/12 03:25:55;;;;;;;19.03;11.63;;;16.60;1.00;;;;;;5034012;28;20376;-74
2021/06/12 03:28:21;;;;;;;18.70;12.40;;;16.60;1.00;;;;;;5033699;28;20474;-74
2021/06/12 03:30:48;;;;;;;29.40;13.20;;;16.60;1.00;;;;;;5031844;28;20395;-74
2021/06/12 03:33:14;;;;;;;25.67;12.70;;;;;;;;;;5032134;28;20438;-74
2021/06/12 03:35:40;;;;;;;16.47;12.20;;;16.60;1.00;;;;;;5033122;28;20388;-74
2021/06/12 03:38:20;;;;;;;23.70;12.87;;;16.60;1.00;;;;;;5033890;28;20468;-74
2021/06/12 03:40:46;;;;;;;29.43;12.70;;;16.60;1.00;;;;;;5033371;28;20400;-75
2021/06/12 03:43:31;;;;;;;18.60;12.50;;;16.60;1.00;;;;;;5044570;28;20426;-76
2021/06/12 03:46:19;;;;;;;18.50;12.57;;;16.60;1.00;;;;;;5053088;28;20391;-76
2021/06/12 03:48:49;;;;;;;16.13;11.80;;;16.60;1.00;;;;;;5068683;28;20998;-75
2021/06/12 03:51:20;;;;;;;17.50;12.97;;;16.60;1.00;;;;;;5053089;28;20401;-76
2021/06/12 03:54:24;;;;;;;21.27;13.10;;;16.70;1.00;;;;;;5040258;28;20956;-75
2021/06/12 03:56:50;;;;;;;16.30;11.80;;;16.70;1.00;;;;;;5038494;28;20416;-74
2021/06/12 03:59:17;;;;;;;17.17;12.50;;;16.80;1.00;;;;;;5052719;28;20395;-74
2021/06/12 04:01:48;;;;;;;17.57;12.23;;;16.80;1.00;;;;;;5053013;28;20394;-74
2021/06/12 04:04:20;;;;;;;25.47;12.83;;;16.80;1.00;;;;;;5052608;28;20401;-75
2021/06/12 04:06:49;;;;;;;18.13;12.50;;;16.90;1.00;;;;;;5053118;28;20369;-74
2021/06/12 04:09:15;;;;;;;20.03;12.30;;;;;;;;;;5039640;28;20755;-74
2021/06/12 04:11:48;;;;;;;21.00;12.10;;;17.00;1.00;;;;;;5037654;28;20874;-74
2021/06/12 04:14:14;;;;;;;18.80;12.17;;;;;;;;;;5036687;28;20418;-74
2021/06/12 04:16:40;;;;;;;16.70;12.10;;;17.10;1.00;;;;;;5036906;28;20403;-74
2021/06/12 04:19:06;;;;;;;16.03;12.07;;;;;;;;;;5036748;28;20378;-74
2021/06/12 04:21:36;;;;;;;20.50;11.60;;;17.20;1.00;;;;;;5036441;28;20161;-74
2021/06/12 04:24:02;;;;;;;15.40;10.97;;;;;;;;;;5046439;28;20768;-74
2021/06/12 04:26:48;;;;;;;14.77;10.83;;;17.30;1.00;;;;;;5056986;28;20464;-75
2021/06/12 04:29:24;;;;;;;16.30;11.80;;;17.40;1.00;;;;;;5056339;28;20369;-75
2021/06/12 04:31:50;;;;;;;15.80;11.93;;;;;;;;;;5056312;28;20899;-77
2021/06/12 04:34:16;;;;;;;16.23;10.33;;;17.50;1.00;;;;;;5056844;28;20421;-75
2021/06/12 04:36:42;;;;;;;15.63;10.40;;;17.50;1.00;;;;;;5071728;28;20932;-76
2021/06/12 04:39:12;;;;;;;21.33;12.07;;;17.60;1.00;;;;;;5045169;28;20489;-76
2021/06/12 04:41:39;;;;;;;21.73;11.10;;;;;;;;;;5036166;28;20165;-76
2021/06/12 04:44:05;;;;;;;17.50;12.37;;;17.70;1.00;;;;;;5035180;28;20483;-76
2021/06/12 04:46:31;;;;;;;14.23;10.50;;;17.80;1.00;;;;;;5035435;28;20404;-75
2021/06/12 04:49:00;;;;;;;19.50;10.67;;;17.80;1.00;;;;;;5035611;28;20404;-75
2021/06/12 04:51:30;;;;;;;19.73;10.77;;;17.90;1.00;;;;;;5035916;28;20604;-76
2021/06/12 04:54:18;;;;;;;14.10;10.90;;;18.00;1.00;;;;;;5047732;28;20500;-75
2021/06/12 04:56:44;;;;;;;18.10;11.00;;;;;;;;;;5056187;28;20430;-75
2021/06/12 04:59:10;;;;;;;20.67;10.57;;;;;;;;;;5056054;28;20377;-74
2021/06/12 05:01:36;;;;;;;17.90;10.60;;;18.20;1.00;;;;;;5054129;28;20413;-74
2021/06/12 05:04:18;;;;;;;12.43;9.70;;;18.30;1.00;;;;;;5054139;28;20521;-82
2021/06/12 05:06:48;;;;;;;15.00;9.30;;;18.30;1.00;;;;;;5054362;28;20181;-78
2021/06/12 05:09:18;;;;;;;20.57;9.90;;;18.50;1.00;;;;;;5055687;28;20400;-80
2021/06/12 05:11:50;;;;;;;16.27;9.87;;;18.60;1.00;;;;;;5054504;28;20801;-78
2021/06/12 05:14:19;;;;;;;14.60;9.60;;;18.70;1.00;;;;;;5052866;28;20479;-76
2021/06/12 05:16:45;;;;;;;12.33;9.10;;;18.80;1.00;;;;;;5041301;28;22303;-76
2021/06/12 05:19:11;;;;;;;23.63;9.47;;;;;;;;;;5052002;28;20411;-76
2021/06/12 05:21:38;;;;;;;15.10;9.23;;;18.90;1.00;;;;;;5054641;28;20672;-76
2021/06/12 05:24:05;;;;;;;11.30;8.73;;;19.00;1.00;;;;;;5054785;28;20419;-76
2021/06/12 05:26:31;;;;;;;15.70;10.23;;;19.20;1.00;;;;;;5054570;28;20433;-76
2021/06/12 05:28:57;;;;;;;15.43;9.10;;;;;;;;;;5053527;28;20392;-76
2021/06/12 05:31:23;;;;;;;12.33;9.10;;;19.50;1.00;;;;;;5047462;28;20892;-79
2021/06/12 05:33:49;;;;;;;14.40;9.43;;;;;;;;;;5040996;28;20431;-79
2021/06/12 05:36:15;;;;;;;9.77;8.27;;;19.80;1.00;;;;;;5043977;28;20195;-79
2021/06/12 05:38:41;;;;;;;11.10;8.50;;;;;;;;;;5051513;28;20448;-79
2021/06/12 05:41:07;;;;;;;11.47;7.90;;;;;;;;;;5051835;28;20627;-79
2021/06/12 05:43:32;;;;;;;11.40;8.17;;;20.40;1.00;;;;;;5049447;28;20796;-79
2021/06/12 05:45:59;;;;;;;6.33;5.47;;;;;;;;;;5050364;28;20429;-79
2021/06/12 05:48:25;;;;;;;9.43;7.10;;;20.60;1.00;;;;;;5051391;28;20170;-79
2021/06/12 05:50:51;;;;;;;11.93;7.20;;;20.70;1.00;;;;;;5054145;28;20365;-79
2021/06/12 05:53:17;;;;;;;21.63;8.47;;;20.70;1.00;;;;;;5052076;28;20402;-79
2021/06/12 05:55:43;;;;;;;19.37;8.00;;;;;;;;;;5051790;28;20460;-79
2021/06/12 05:58:12;;;;;;;13.33;7.40;;;20.90;1.00;;;;;;5053795;28;20191;-79
2021/06/12 06:00:38;;;;;;;20.90;8.50;;;21.00;1.00;;;;;;5052390;28;20859;-79
2021/06/12 06:03:54;;;;;;;13.17;5.57;;;21.10;1.00;;;;;;5054427;28;20525;-80
2021/06/12 06:06:19;;;;;;;11.57;5.63;;;21.20;1.00;;;;;;5069535;28;20180;-73
2021/06/12 06:08:45;;;;;;;6.30;5.10;;;21.30;1.00;;;;;;5074662;28;20860;-73
2021/06/12 06:11:11;;;;;;;9.60;4.93;;;21.60;1.00;;;;;;5065859;28;20173;-73
2021/06/12 06:13:42;;;;;;;11.60;4.87;;;21.70;1.00;;;;;;5054557;28;20653;-74
2021/06/12 06:16:08;;;;;;;4.90;3.90;;;21.80;1.00;;;;;;5054386;28;20161;-74
2021/06/12 06:18:35;;;;;;;6.80;4.10;;;22.10;1.00;;;;;;5054075;28;20512;-74
2021/06/12 06:21:05;;;;;;;7.47;4.30;;;22.30;1.00;;;;;;5053171;28;20390;-78
2021/06/12 06:23:32;;;;;;;6.60;4.10;;;22.50;1.00;;;;;;5053152;28;20508;-78
2021/06/12 06:32:42;;;;;;;5.50;3.97;;;23.00;1.00;;;;;;5054175;28;20421;-82
2021/06/12 06:35:18;;;;;;;6.30;4.67;;;23.10;1.00;;;;;;5054104;28;20497;-82
2021/06/12 06:41:36;;;;;;;6.00;4.43;;;23.40;1.00;;;;;;5053600;28;20430;-82
2021/06/12 06:48:13;;;;;;;8.80;4.90;;;23.30;1.00;;;;;;5053305;28;20411;-80
2021/06/12 06:50:40;;;;;;;10.33;4.70;;;23.40;1.00;;;;;;5033447;28;20386;-80
2021/06/12 06:53:05;;;;;;;9.67;4.30;;;23.40;1.00;;;;;;5033860;28;20743;-80
2021/06/12 06:55:37;;;;;;;8.27;4.50;;;23.40;1.00;;;;;;5033676;28;20409;-80
2021/06/12 06:58:24;;;;;;;9.93;4.83;;;23.40;1.00;;;;;;5049755;28;20195;-76
2021/06/12 07:00:55;;;;;;;5.80;4.40;;;23.50;1.00;;;;;;5053717;28;20882;-76
2021/06/12 07:03:20;;;;;;;6.47;4.33;;;23.70;1.00;;;;;;5053548;28;20447;-76
2021/06/12 07:06:00;;;;;;;6.00;4.13;;;23.70;1.00;;;;;;5053443;28;20843;-76
2021/06/12 07:08:30;;;;;;;5.40;4.00;;;23.90;1.00;;;;;;5053485;28;20160;-76
2021/06/12 07:11:12;;;;;;;11.50;4.80;;;24.10;1.00;;;;;;5053426;28;20403;-76
2021/06/12 07:13:42;;;;;;;9.40;5.60;;;24.10;1.00;;;;;;5053258;28;20774;-76
2021/06/12 07:16:18;;;;;;;20.33;6.10;;;24.10;1.00;;;;;;5053236;28;20402;-77
2021/06/12 07:18:49;;;;;;;6.70;4.63;;;;;;;;;;5039308;28;20468;-76
2021/06/12 07:21:18;;;;;;;13.13;5.80;;;24.30;1.00;;;;;;5033250;28;20495;-76
2021/06/12 07:23:44;;;;;;;6.00;4.70;;;24.30;1.00;;;;;;5033409;28;20452;-76
2021/06/12 07:26:12;;;;;;;7.77;4.70;;;24.30;1.00;;;;;;5033456;28;20404;-76
2021/06/12 07:28:38;;;;;;;10.43;6.20;;;24.40;1.00;;;;;;5033591;28;20174;-76
2021/06/12 07:31:18;;;;;;;12.90;5.87;;;24.50;1.00;;;;;;5033404;28;20401;-76
2021/06/12 07:33:44;;;;;;;12.73;5.60;;;;;;;;;;5033382;28;20232;-76
2021/06/12 07:36:12;;;;;;;14.13;5.70;;;24.70;1.00;;;;;;5033007;28;20402;-76
2021/06/12 07:39:18;;;;;;;18.43;6.63;;;24.90;1.00;;;;;;5033310;28;20434;-77
2021/06/12 07:41:44;;;;;;;8.60;5.47;;;25.00;1.00;;;;;;5032041;28;20959;-77
2021/06/12 07:44:18;;;;;;;16.20;6.10;;;25.10;1.00;;;;;;5032895;28;20537;-78
2021/06/12 07:46:44;;;;;;;16.23;5.80;;;25.20;1.00;;;;;;5032788;28;20159;-80
2021/06/12 07:49:19;;;;;;;9.77;6.07;;;25.40;1.00;;;;;;5051660;28;20587;-81
2021/06/12 07:51:54;;;;;;;9.00;5.57;;;25.50;1.00;;;;;;5052783;28;20168;-76
2021/06/12 07:54:27;;;;;;;8.13;5.30;;;25.70;1.00;;;;;;5052233;28;20474;-75
2021/06/12 07:56:52;;;;;;;10.13;4.70;;;25.70;1.00;;;;;;5050398;28;20934;-75
2021/06/12 07:59:30;;;;;;;15.23;4.93;;;25.80;1.00;;;;;;5053109;28;20481;-77
2021/06/12 08:01:56;;;;;;;9.83;5.60;;;25.80;1.00;;;;;;5053013;28;20171;-76
2021/06/12 08:04:42;;;;;;;10.10;4.97;;;;;;;;;;5052861;28;20448;-78
2021/06/12 08:07:19;;;;;;;13.00;5.60;;;26.10;1.00;;;;;;5044294;28;20178;-80
2021/06/12 08:09:55;;;;;;;22.90;8.40;;;26.10;1.00;;;;;;5044013;28;20982;-81
2021/06/12 08:13:00;;;;;;;17.37;8.47;;;26.10;1.00;;;;;;5038814;28;20475;-80
2021/06/12 08:15:48;;;;;;;12.83;7.47;;;26.00;1.00;;;;;;5050866;28;20407;-83
2021/06/12 08:18:14;;;;;;;12.70;7.43;;;;;;;;;;5067916;28;20516;-76
2021/06/12 08:20:54;;;;;;;19.53;8.17;;;26.10;1.00;;;;;;5049909;28;20420;-75
2021/06/12 08:23:20;;;;;;;25.17;9.50;;;26.20;1.00;;;;;;5052788;28;20464;-75
2021/06/12 08:25:47;;;;;;;18.87;9.00;;;;;;;;;;5052558;28;20395;-76
2021/06/12 08:28:13;;;;;;;13.07;7.17;;;26.30;1.00;;;;;;5035404;28;20617;-75
2021/06/12 08:30:43;;;;;;;23.70;8.57;;;;;;;;;;5032777;28;20404;-74
2021/06/12 08:33:10;;;;;;;23.10;9.30;;;26.50;1.00;;;;;;5032573;28;20174;-75
2021/06/12 08:35:36;;;;;;;20.73;8.57;;;26.50;1.00;;;;;;5046383;28;20765;-75
2021/06/12 08:38:07;;;;;;;13.03;7.67;;;26.40;1.00;;;;;;5033130;28;20487;-75
2021/06/12 08:40:33;;;;;;;14.50;7.63;;;26.20;1.00;;;;;;5032568;28;21336;-75
2021/06/12 08:42:59;;;;;;;22.10;8.67;;;;;;;;;;5046239;28;20460;-75
2021/06/12 08:45:28;;;;;;;17.13;7.83;;;26.20;1.00;;;;;;5052804;28;20469;-75
2021/06/12 08:47:58;;;;;;;11.37;6.27;;;26.30;1.00;;;;;;5050802;28;20537;-75
2021/06/12 08:50:49;;;;;;;26.97;9.90;;;26.40;1.00;;;;;;5052126;28;20430;-75
2021/06/12 08:53:32;;;;;;;17.03;6.97;;;26.50;1.00;;;;;;5052276;28;20387;-76
2021/06/12 08:55:58;;;;;;;13.23;6.40;;;26.50;1.00;;;;;;5054120;28;20845;-75
2021/06/12 08:58:24;;;;;;;14.20;7.20;;;26.20;1.00;;;;;;5056130;28;20407;-75
2021/06/12 09:00:54;;;;;;;11.73;6.50;;;26.30;1.00;;;;;;5054738;28;20753;-75
2021/06/12 09:03:24;;;;;;;12.50;7.00;;;26.40;1.00;;;;;;5035964;28;20221;-75
2021/06/12 09:05:59;;;;;;;20.50;6.27;;;26.50;1.00;;;;;;5038634;28;20773;-76
2021/06/12 09:08:48;;;;;;;13.23;6.60;;;26.30;1.00;;;;;;5055664;28;20454;-76
2021/06/12 09:11:25;;;;;;;34.43;8.70;;;26.20;1.00;;;;;;5055129;28;20415;-75
2021/06/12 09:13:57;;;;;;;13.30;7.40;;;;;;;;;;5055231;28;20479;-75
2021/06/12 09:16:23;;;;;;;26.97;7.20;;;26.30;1.00;;;;;;5054090;28;20452;-74
2021/06/12 09:18:49;;;;;;;13.30;6.63;;;26.40;1.00;;;;;;5055467;28;20394;-74
2021/06/12 09:21:29;;;;;;;14.60;6.80;;;26.60;1.00;;;;;;5049076;28;20510;-74
2021/06/12 09:23:57;;;;;;;15.10;6.07;;;;;;;;;;5054357;28;20456;-74
2021/06/12 09:26:44;;;;;;;16.07;6.00;;;27.20;1.00;;;;;;5054671;28;20895;-74
2021/06/12 09:29:10;;;;;;;12.20;6.77;;;27.20;1.00;;;;;;5054189;28;20391;-75
2021/06/12 09:31:45;;;;;;;10.90;6.27;;;27.40;1.00;;;;;;5054117;28;21017;-75
2021/06/12 09:34:12;;;;;;;11.93;6.40;;;27.50;1.00;;;;;;5054454;28;20405;-75
2021/06/12 09:36:38;;;;;;;8.70;5.57;;;27.80;1.00;;;;;;5053635;28;20405;-75
2021/06/12 09:39:10;;;;;;;12.03;5.93;;;27.90;1.00;;;;;;5054234;28;20407;-75
2021/06/12 09:41:36;;;;;;;8.33;5.73;;;28.10;1.00;;;;;;5053743;28;20891;-75
2021/06/12 09:44:06;;;;;;;8.83;5.80;;;27.90;1.00;;;;;;5054282;28;20450;-75
2021/06/12 09:46:41;;;;;;;10.90;4.80;;;27.80;1.00;;;;;;5053415;28;20445;-75
2021/06/12 09:49:10;;;;;;;8.70;4.70;;;27.70;1.00;;;;;;5053976;28;20920;-75
2021/06/12 09:51:37;;;;;;;7.50;4.70;;;27.50;1.00;;;;;;5052769;28;20992;-75
2021/06/12 09:54:05;;;;;;;10.97;4.30;;;27.50;1.00;;;;;;5044683;28;20577;-75
2021/06/12 09:56:32;;;;;;;6.90;4.43;;;27.40;1.00;;;;;;5033748;28;20779;-75
2021/06/12 09:58:59;;;;;;;12.87;5.90;;;27.40;1.00;;;;;;5033714;28;20492;-74
2021/06/12 10:01:29;;;;;;;12.60;6.07;;;27.30;1.00;;;;;;5033710;28;20893;-74
2021/06/12 10:04:12;;;;;;;7.73;4.80;;;27.20;1.00;;;;;;5033571;28;20460;-74
2021/06/12 10:06:38;;;;;;;6.57;3.93;;;27.20;1.00;;;;;;5038343;28;20449;-74
2021/06/12 10:09:06;;;;;;;20.13;5.13;;;27.30;1.00;;;;;;5053521;28;20749;-74
2021/06/12 10:11:33;;;;;;;10.43;4.87;;;27.40;1.00;;;;;;5053458;28;20182;-74
2021/06/12 10:14:02;;;;;;;3.67;3.20;;;27.30;1.00;;;;;;5053428;28;20400;-74
2021/06/12 10:16:30;;;;;;;5.77;3.17;;;27.30;1.00;;;;;;5053410;28;20399;-74
2021/06/12 10:18:58;;;;;;;7.73;3.33;;;27.00;1.00;;;;;;5053377;28;20492;-74
2021/06/12 10:21:24;;;;;;;6.13;3.20;;;26.80;1.00;;;;;;5053373;28;20428;-74
2021/06/12 10:23:51;;;;;;;4.50;3.00;;;26.80;1.00;;;;;;5052788;28;20936;-74
2021/06/12 10:26:21;;;;;;;5.40;3.00;;;26.90;1.00;;;;;;5053231;28;20756;-74
2021/06/12 10:28:47;;;;;;;4.30;3.30;;;27.00;1.00;;;;;;5053345;28;20395;-74
2021/06/12 10:31:21;;;;;;;8.23;2.70;;;27.10;1.00;;;;;;5053418;28;20876;-74
2021/06/12 10:33:50;;;;;;;7.17;2.60;;;27.30;1.00;;;;;;5053434;28;20438;-74
2021/06/12 10:36:27;;;;;;;3.90;2.90;;;27.40;1.00;;;;;;5052788;28;20406;-74
2021/06/12 10:38:53;;;;;;;2.80;2.40;;;27.40;1.00;;;;;;5053170;28;20501;-74
2021/06/12 10:41:24;;;;;;;10.67;2.70;;;27.50;1.00;;;;;;5052176;28;20439;-74
2021/06/12 10:43:59;;;;;;;9.63;2.60;;;27.70;1.00;;;;;;5052909;28;20445;-74
2021/06/12 10:46:27;;;;;;;6.93;2.90;;;27.80;1.00;;;;;;5052802;28;20870;-75
2021/06/12 10:49:00;;;;;;;2.23;2.03;;;27.80;1.00;;;;;;5052699;28;20403;-75
2021/06/12 10:51:26;;;;;;;4.33;2.10;;;27.80;1.00;;;;;;5052734;28;20388;-75
2021/06/12 10:54:19;;;;;;;2.10;2.00;;;28.00;1.00;;;;;;5047805;28;20501;-75
2021/06/12 10:56:48;;;;;;;2.10;1.90;;;28.10;1.00;;;;;;5032749;28;20267;-74
2021/06/12 10:59:37;;;;;;;1.73;1.60;;;28.30;1.00;;;;;;5032799;28;20412;-74
2021/06/12 11:02:05;;;;;;;2.93;1.77;;;;;;;;;;5032717;28;20394;-75
2021/06/12 11:04:51;;;;;;;1.77;1.53;;;28.50;1.00;;;;;;5032611;28;20510;-75
2021/06/12 11:07:25;;;;;;;3.37;1.87;;;28.70;1.00;;;;;;5032984;28;20435;-75
2021/06/12 11:09:51;;;;;;;2.20;2.00;;;28.90;1.00;;;;;;5032106;28;20759;-75
2021/06/12 11:12:17;;;;;;;4.80;1.87;;;29.00;1.00;;;;;;5032631;28;20407;-75
2021/06/12 11:14:56;;;;;;;1.53;1.43;;;29.00;1.00;;;;;;5032426;28;20413;-75
2021/06/12 11:17:22;;;;;;;1.70;1.60;;;28.90;1.00;;;;;;5032590;28;20623;-75
2021/06/12 11:19:56;;;;;;;2.27;1.87;;;28.90;1.00;;;;;;5032357;28;20457;-75
2021/06/12 11:22:37;;;;;;;1.93;1.53;;;28.60;1.00;;;;;;5031838;28;20192;-75
2021/06/12 11:25:09;;;;;;;2.77;1.97;;;28.50;1.00;;;;;;5032414;28;20450;-76
2021/06/12 11:27:43;;;;;;;9.53;2.10;;;28.30;1.00;;;;;;5032665;28;20480;-76
2021/06/12 11:30:21;;;;;;;2.37;1.90;;;28.60;1.00;;;;;;5032441;28;20540;-74
2021/06/12 11:33:09;;;;;;;2.03;1.57;;;29.00;1.00;;;;;;5030767;28;20911;-74
2021/06/12 11:35:45;;;;;;;5.93;1.97;;;29.10;1.00;;;;;;5032058;28;20410;-74
2021/06/12 11:38:21;;;;;;;1.70;1.60;;;29.00;1.00;;;;;;5032272;28;20429;-74
2021/06/12 11:41:02;;;;;;;2.03;1.90;;;29.10;1.00;;;;;;5031812;28;20933;-74
2021/06/12 11:43:52;;;;;;;3.97;2.07;;;29.40;1.00;;;;;;5031963;28;20917;-74
2021/06/12 11:46:30;;;;;;;1.77;1.67;;;29.50;1.00;;;;;;5032354;28;20516;-75
2021/06/12 11:48:57;;;;;;;3.17;2.00;;;29.40;1.00;;;;;;5031982;28;20402;-75
2021/06/12 11:51:25;;;;;;;1.70;1.60;;;29.20;1.00;;;;;;5032194;28;20403;-75
2021/06/12 11:54:17;;;;;;;1.60;1.50;;;29.00;1.00;;;;;;5032028;28;20433;-76
2021/06/12 11:56:53;;;;;;;2.17;2.00;;;28.80;1.00;;;;;;5031893;28;20433;-76
2021/06/12 11:59:25;;;;;;;3.50;2.23;;;28.90;1.00;;;;;;5031755;28;20398;-75
2021/06/12 12:01:57;;;;;;;5.57;2.53;;;28.70;1.00;;;;;;5031045;28;20876;-75
2021/06/12 12:04:24;;;;;;;3.33;2.03;;;28.60;1.00;;;;;;5031756;28;20441;-76
2021/06/12 12:06:54;;;;;;;3.87;2.40;;;28.70;1.00;;;;;;5038294;28;20423;-75
2021/06/12 12:09:34;;;;;;;1.87;1.70;;;28.60;1.00;;;;;;5051773;28;20429;-75
2021/06/12 12:12:08;;;;;;;10.53;2.43;;;28.50;1.00;;;;;;5052019;28;20455;-75
2021/06/12 12:14:37;;;;;;;2.80;2.00;;;28.60;1.00;;;;;;5051922;28;20396;-76
2021/06/12 12:17:04;;;;;;;2.17;1.93;;;28.60;1.00;;;;;;5052241;28;20437;-75
2021/06/12 12:19:30;;;;;;;2.30;2.13;;;28.40;1.00;;;;;;5051886;28;20908;-75
2021/06/12 12:21:58;;;;;;;2.67;2.20;;;28.40;1.00;;;;;;5051594;28;20431;-75
2021/06/12 12:24:28;;;;;;;2.13;1.77;;;28.30;1.00;;;;;;5051756;28;20202;-75
2021/06/12 12:27:09;;;;;;;1.87;1.77;;;28.10;1.00;;;;;;5051921;28;20401;-75
2021/06/12 12:29:40;;;;;;;4.93;1.70;;;28.20;1.00;;;;;;5053236;28;20423;-75
2021/06/12 12:32:06;;;;;;;2.33;1.60;;;27.90;1.00;;;;;;5054716;28;20418;-75
2021/06/12 12:34:36;;;;;;;2.23;1.80;;;27.80;1.00;;;;;;5055542;28;20721;-75
2021/06/12 12:37:09;;;;;;;6.10;1.83;;;27.80;1.00;;;;;;5054906;28;20469;-75
2021/06/12 12:39:43;;;;;;;2.63;1.30;;;27.80;1.00;;;;;;5055764;28;20404;-75
2021/06/12 12:42:21;;;;;;;10.13;2.00;;;27.80;1.00;;;;;;5049291;28;20440;-76
2021/06/12 12:44:49;;;;;;;2.87;1.63;;;27.60;1.00;;;;;;5035399;28;20939;-75
2021/06/12 12:47:22;;;;;;;1.30;1.20;;;27.50;1.00;;;;;;5035389;28;20407;-74
2021/06/12 12:49:48;;;;;;;3.20;1.90;;;27.30;1.00;;;;;;5034445;28;20392;-74
2021/06/12 12:52:28;;;;;;;4.70;1.80;;;27.20;1.00;;;;;;5035093;28;20497;-74
2021/06/12 12:54:58;;;;;;;2.43;1.70;;;27.20;1.00;;;;;;5035363;28;20455;-74
2021/06/12 12:57:23;;;;;;;2.90;2.17;;;27.30;1.00;;;;;;5046192;28;20451;-79
2021/06/12 12:59:49;;;;;;;4.10;1.87;;;;;;;;;;5055005;28;20942;-79
2021/06/12 13:02:16;;;;;;;4.10;1.90;;;26.80;1.00;;;;;;5055430;28;20195;-78
2021/06/12 13:04:44;;;;;;;4.50;2.10;;;26.70;1.00;;;;;;5040752;28;20558;-78
2021/06/12 13:07:18;;;;;;;2.00;1.90;;;26.60;1.00;;;;;;5054505;28;20828;-79
2021/06/12 13:10:05;;;;;;;3.53;2.50;;;26.50;1.00;;;;;;5054855;28;20411;-79
2021/06/12 13:12:31;;;;;;;4.20;2.53;;;26.50;1.00;;;;;;5054153;28;20396;-80
2021/06/12 13:15:03;;;;;;;2.67;2.33;;;26.70;1.00;;;;;;5054992;28;20399;-79
2021/06/12 13:17:30;;;;;;;2.93;2.60;;;26.80;1.00;;;;;;5054530;28;20442;-79
2021/06/12 13:20:06;;;;;;;18.40;2.97;;;26.90;1.00;;;;;;5054919;28;20480;-79
2021/06/12 13:22:37;;;;;;;2.90;2.47;;;26.80;1.00;;;;;;5054695;28;20756;-78
2021/06/12 13:25:05;;;;;;;6.83;2.77;;;;;;;;;;5054027;28;20448;-79
2021/06/12 13:27:41;;;;;;;5.73;2.97;;;26.50;1.00;;;;;;5053245;28;20427;-79
2021/06/12 13:30:31;;;;;;;4.20;2.90;;;26.20;1.00;;;;;;5053193;28;20431;-79
2021/06/12 13:32:57;;;;;;;4.50;3.17;;;;;;;;;;5054009;28;20404;-81
2021/06/12 13:35:29;;;;;;;7.93;3.70;;;26.00;1.00;;;;;;5053780;28;20435;-77
2021/06/12 13:38:12;;;;;;;7.80;3.57;;;25.90;1.00;;;;;;5054670;28;20433;-76